This is the latest recevied weather packets stored in our database for station/object F1ZFG-13. If no packets are shown the sender has not sent any weather packets the latest 10 day(s).
| Time | Temp. | Humidity | Pressure | Rain* | Wind** | Luminosity | Snow |
|---|---|---|---|---|---|---|---|
| 1777998840 | 14.44° C | 75% | 1008.9 hPa | 0 mm | - | - | - |
| 1777995338 | 15.56° C | 72% | 1008.7 hPa | 0 mm | - | - | - |
| 1777992109 | 15° C | 78% | 1008.8 hPa | 0 mm | - | - | - |
| 1777988673 | 13.33° C | 85% | 1009.6 hPa | 0 mm | - | - | - |
| 1777985631 | 16.11° C | 73% | 1008.7 hPa | 1.52 mm | - | - | - |
| 1777982383 | 16.11° C | 78% | 1009.1 hPa | 0.51 mm | - | - | - |
| 1777979406 | 16.11° C | 78% | 1009.1 hPa | 0.51 mm | - | - | - |
| 1777976170 | 13.33° C | 92% | 1009.6 hPa | 0 mm | - | - | - |
| 1777973116 | 13.33° C | 91% | 1009.6 hPa | 0 mm | - | - | - |
| 1777970021 | 12.78° C | 91% | 1009.8 hPa | 0 mm | - | - | - |
| 1777966456 | 11.67° C | 94% | 1009.7 hPa | 0 mm | - | - | - |
| 1777963489 | 11.11° C | 94% | 1009.4 hPa | 0 mm | - | - | - |
| 1777960257 | 10.56° C | 95% | 1009.7 hPa | 0 mm | - | - | - |
| 1777957258 | 10.56° C | 95% | 1009.7 hPa | 0 mm | - | - | - |
| 1777953763 | 10.56° C | 96% | 1010 hPa | 0.25 mm | - | - | - |
| 1777950586 | 10.56° C | 97% | 1010.5 hPa | 0.25 mm | - | - | - |
| 1777947052 | 10.56° C | 96% | 1011.1 hPa | 0.25 mm | - | - | - |
| 1777943803 | 10.56° C | 96% | 1011.3 hPa | 0.25 mm | - | - | - |
| 1777940719 | 10.56° C | 96% | 1010.8 hPa | 0.51 mm | - | - | - |
| 1777937355 | 10.56° C | 95% | 1011.5 hPa | 0.76 mm | - | - | - |
| 1777933758 | 10.56° C | 94% | 1011.8 hPa | 0.25 mm | - | - | - |
| 1777930478 | 11.11° C | 91% | 1012.4 hPa | 1.02 mm | - | - | - |
| 1777927300 | 11.11° C | 94% | 1012.5 hPa | 0 mm | - | - | - |
| 1777924204 | 11.67° C | 93% | 1012.4 hPa | 0 mm | - | - | - |
| 1777921229 | 12.78° C | 91% | 1011.8 hPa | 0.51 mm | - | - | - |
* Rain latest hour (hover to see other rain measurements)
** Current wind speed in m/s (hover to see current wind gust speed)